sensor_id;sensor_type;location;lat;lon;timestamp;pressure;altitude;pressure_sealevel;temperature;humidity
74327;BME280;62745;51.060;13.786;2022-09-03T00:01:17;100465.78;;;13.93;68.40
74327;BME280;62745;51.060;13.786;2022-09-03T00:03:46;100462.06;;;14.00;67.69
74327;BME280;62745;51.060;13.786;2022-09-03T00:06:23;100462.25;;;14.05;67.05
74327;BME280;62745;51.060;13.786;2022-09-03T00:09:08;100464.94;;;14.05;66.95
74327;BME280;62745;51.060;13.786;2022-09-03T00:12:01;100463.09;;;13.99;66.44
74327;BME280;62745;51.060;13.786;2022-09-03T00:14:36;100462.84;;;14.07;66.79
74327;BME280;62745;51.060;13.786;2022-09-03T00:17:09;100453.81;;;13.95;67.10
74327;BME280;62745;51.060;13.786;2022-09-03T00:19:46;100443.88;;;13.96;67.85
74327;BME280;62745;51.060;13.786;2022-09-03T00:22:18;100445.50;;;14.03;68.57
74327;BME280;62745;51.060;13.786;2022-09-03T00:24:45;100444.28;;;13.99;69.00
74327;BME280;62745;51.060;13.786;2022-09-03T00:27:19;100445.09;;;13.93;68.62
74327;BME280;62745;51.060;13.786;2022-09-03T00:29:54;100445.16;;;13.80;69.47
74327;BME280;62745;51.060;13.786;2022-09-03T00:32:38;100433.16;;;13.82;69.20
74327;BME280;62745;51.060;13.786;2022-09-03T00:35:05;100425.97;;;13.63;68.92
74327;BME280;62745;51.060;13.786;2022-09-03T00:37:33;100434.63;;;13.52;69.21
74327;BME280;62745;51.060;13.786;2022-09-03T00:39:58;100429.88;;;13.41;69.90
74327;BME280;62745;51.060;13.786;2022-09-03T00:42:45;100426.78;;;13.31;68.91
74327;BME280;62745;51.060;13.786;2022-09-03T00:45:36;100425.72;;;13.25;70.81
74327;BME280;62745;51.060;13.786;2022-09-03T00:48:16;100424.06;;;13.17;70.36
74327;BME280;62745;51.060;13.786;2022-09-03T00:51:16;100432.97;;;13.18;70.88
74327;BME280;62745;51.060;13.786;2022-09-03T00:53:55;100417.22;;;12.95;70.70
74327;BME280;62745;51.060;13.786;2022-09-03T00:56:47;100429.56;;;12.83;71.68
74327;BME280;62745;51.060;13.786;2022-09-03T00:59:34;100430.38;;;12.83;72.87
74327;BME280;62745;51.060;13.786;2022-09-03T01:02:26;100425.63;;;12.85;73.09
74327;BME280;62745;51.060;13.786;2022-09-03T01:07:40;100433.44;;;12.74;72.69
74327;BME280;62745;51.060;13.786;2022-09-03T01:10:19;100428.28;;;12.65;72.72
74327;BME280;62745;51.060;13.786;2022-09-03T01:12:56;100433.38;;;12.54;73.91
74327;BME280;62745;51.060;13.786;2022-09-03T01:18:06;100427.31;;;12.32;74.58
74327;BME280;62745;51.060;13.786;2022-09-03T01:20:48;100431.16;;;12.23;73.90
74327;BME280;62745;51.060;13.786;2022-09-03T01:26:15;100437.81;;;12.33;74.25
74327;BME280;62745;51.060;13.786;2022-09-03T01:29:01;100432.78;;;12.17;73.31
74327;BME280;62745;51.060;13.786;2022-09-03T01:34:42;100444.44;;;12.03;74.44
74327;BME280;62745;51.060;13.786;2022-09-03T01:37:32;100438.47;;;12.01;75.35
74327;BME280;62745;51.060;13.786;2022-09-03T01:40:18;100443.47;;;12.11;75.05
74327;BME280;62745;51.060;13.786;2022-09-03T01:43:04;100447.41;;;12.15;74.57
74327;BME280;62745;51.060;13.786;2022-09-03T01:45:41;100451.34;;;12.19;74.17
74327;BME280;62745;51.060;13.786;2022-09-03T01:50:50;100444.75;;;12.21;73.27
74327;BME280;62745;51.060;13.786;2022-09-03T01:53:33;100456.50;;;12.20;72.29
74327;BME280;62745;51.060;13.786;2022-09-03T01:56:36;100440.84;;;12.17;72.87
74327;BME280;62745;51.060;13.786;2022-09-03T02:01:42;100447.09;;;12.31;72.34
74327;BME280;62745;51.060;13.786;2022-09-03T02:04:17;100446.78;;;12.54;72.16
74327;BME280;62745;51.060;13.786;2022-09-03T02:06:43;100441.75;;;12.38;71.83
74327;BME280;62745;51.060;13.786;2022-09-03T02:09:10;100440.09;;;12.30;72.28
74327;BME280;62745;51.060;13.786;2022-09-03T02:11:35;100441.22;;;12.14;73.60
74327;BME280;62745;51.060;13.786;2022-09-03T02:14:01;100433.16;;;12.08;74.34
74327;BME280;62745;51.060;13.786;2022-09-03T02:16:31;100436.91;;;12.13;73.64
74327;BME280;62745;51.060;13.786;2022-09-03T02:19:08;100441.53;;;11.98;73.09
74327;BME280;62745;51.060;13.786;2022-09-03T02:21:39;100440.16;;;12.09;74.66
74327;BME280;62745;51.060;13.786;2022-09-03T02:24:07;100435.38;;;11.97;74.29
74327;BME280;62745;51.060;13.786;2022-09-03T02:26:33;100433.94;;;12.01;74.32
74327;BME280;62745;51.060;13.786;2022-09-03T02:29:00;100440.09;;;11.95;74.48
74327;BME280;62745;51.060;13.786;2022-09-03T02:31:26;100431.13;;;12.10;74.50
74327;BME280;62745;51.060;13.786;2022-09-03T02:33:53;100446.50;;;12.01;75.20
74327;BME280;62745;51.060;13.786;2022-09-03T02:36:24;100443.50;;;11.83;75.67
74327;BME280;62745;51.060;13.786;2022-09-03T02:38:51;100440.75;;;11.76;76.11
74327;BME280;62745;51.060;13.786;2022-09-03T02:41:16;100444.56;;;11.60;76.48
74327;BME280;62745;51.060;13.786;2022-09-03T02:43:55;100447.75;;;11.49;76.73
74327;BME280;62745;51.060;13.786;2022-09-03T02:46:26;100445.59;;;11.38;78.15
74327;BME280;62745;51.060;13.786;2022-09-03T02:48:54;100445.66;;;11.44;79.23
74327;BME280;62745;51.060;13.786;2022-09-03T02:51:20;100440.34;;;11.51;78.41
74327;BME280;62745;51.060;13.786;2022-09-03T02:53:45;100438.56;;;11.37;78.41
74327;BME280;62745;51.060;13.786;2022-09-03T02:56:11;100442.63;;;11.54;76.85
74327;BME280;62745;51.060;13.786;2022-09-03T02:58:36;100444.47;;;11.54;76.72
74327;BME280;62745;51.060;13.786;2022-09-03T03:01:02;100450.13;;;11.65;77.66
74327;BME280;62745;51.060;13.786;2022-09-03T03:03:28;100438.25;;;11.47;76.68
74327;BME280;62745;51.060;13.786;2022-09-03T03:05:55;100438.19;;;11.40;77.50
74327;BME280;62745;51.060;13.786;2022-09-03T03:08:24;100441.22;;;11.30;77.73
74327;BME280;62745;51.060;13.786;2022-09-03T03:10:55;100432.47;;;11.22;77.86
74327;BME280;62745;51.060;13.786;2022-09-03T03:13:28;100439.22;;;11.18;78.70
74327;BME280;62745;51.060;13.786;2022-09-03T03:15:56;100435.47;;;11.33;79.67
74327;BME280;62745;51.060;13.786;2022-09-03T03:18:21;100432.53;;;11.50;78.34
74327;BME280;62745;51.060;13.786;2022-09-03T03:20:47;100424.53;;;11.28;77.77
74327;BME280;62745;51.060;13.786;2022-09-03T03:23:12;100421.94;;;11.13;78.15
74327;BME280;62745;51.060;13.786;2022-09-03T03:25:38;100436.63;;;11.03;79.08
74327;BME280;62745;51.060;13.786;2022-09-03T03:28:04;100428.53;;;10.96;80.40
74327;BME280;62745;51.060;13.786;2022-09-03T03:30:30;100425.22;;;10.94;80.41
74327;BME280;62745;51.060;13.786;2022-09-03T03:32:56;100417.31;;;10.86;79.90
74327;BME280;62745;51.060;13.786;2022-09-03T03:35:22;100432.28;;;10.80;80.51
74327;BME280;62745;51.060;13.786;2022-09-03T03:37:47;100434.47;;;11.13;80.82
74327;BME280;62745;51.060;13.786;2022-09-03T03:40:13;100437.63;;;11.23;79.97
74327;BME280;62745;51.060;13.786;2022-09-03T03:42:39;100438.28;;;11.04;79.98
74327;BME280;62745;51.060;13.786;2022-09-03T03:45:06;100439.44;;;10.95;81.07
74327;BME280;62745;51.060;13.786;2022-09-03T03:47:32;100435.53;;;11.19;79.95
74327;BME280;62745;51.060;13.786;2022-09-03T03:49:58;100440.88;;;10.97;79.85
74327;BME280;62745;51.060;13.786;2022-09-03T03:52:24;100447.38;;;10.73;81.29
74327;BME280;62745;51.060;13.786;2022-09-03T03:54:50;100434.88;;;10.74;82.30
74327;BME280;62745;51.060;13.786;2022-09-03T03:57:15;100438.31;;;10.53;82.83
74327;BME280;62745;51.060;13.786;2022-09-03T03:59:41;100437.31;;;10.39;82.98
74327;BME280;62745;51.060;13.786;2022-09-03T04:02:06;100439.47;;;10.29;82.53
74327;BME280;62745;51.060;13.786;2022-09-03T04:04:31;100435.75;;;10.15;82.82
74327;BME280;62745;51.060;13.786;2022-09-03T04:06:57;100442.59;;;10.33;84.62
74327;BME280;62745;51.060;13.786;2022-09-03T04:09:22;100416.66;;;10.27;83.75
74327;BME280;62745;51.060;13.786;2022-09-03T04:11:47;100425.72;;;10.17;83.45
74327;BME280;62745;51.060;13.786;2022-09-03T04:14:12;100425.00;;;10.09;83.62
74327;BME280;62745;51.060;13.786;2022-09-03T04:16:38;100437.53;;;10.23;84.68
74327;BME280;62745;51.060;13.786;2022-09-03T04:19:03;100433.56;;;10.34;83.40
74327;BME280;62745;51.060;13.786;2022-09-03T04:21:29;100432.59;;;10.56;83.23
74327;BME280;62745;51.060;13.786;2022-09-03T04:23:55;100432.97;;;10.68;82.75
74327;BME280;62745;51.060;13.786;2022-09-03T04:26:24;100432.34;;;10.51;82.43
74327;BME280;62745;51.060;13.786;2022-09-03T04:28:49;100425.09;;;10.45;83.00
74327;BME280;62745;51.060;13.786;2022-09-03T04:31:16;100428.88;;;10.21;83.32
74327;BME280;62745;51.060;13.786;2022-09-03T04:33:42;100431.81;;;10.11;83.72
74327;BME280;62745;51.060;13.786;2022-09-03T04:36:12;100426.38;;;10.34;83.42
74327;BME280;62745;51.060;13.786;2022-09-03T04:38:40;100431.16;;;10.24;84.05
74327;BME280;62745;51.060;13.786;2022-09-03T04:41:07;100424.63;;;10.12;83.71
74327;BME280;62745;51.060;13.786;2022-09-03T04:43:33;100424.63;;;9.97;83.90
74327;BME280;62745;51.060;13.786;2022-09-03T04:46:00;100432.25;;;9.85;85.41
74327;BME280;62745;51.060;13.786;2022-09-03T04:48:27;100429.69;;;10.07;85.71
74327;BME280;62745;51.060;13.786;2022-09-03T04:50:53;100429.63;;;10.30;84.38
74327;BME280;62745;51.060;13.786;2022-09-03T04:53:20;100436.44;;;10.32;83.50
74327;BME280;62745;51.060;13.786;2022-09-03T04:55:45;100435.31;;;10.41;84.52
74327;BME280;62745;51.060;13.786;2022-09-03T04:58:10;100439.84;;;10.26;83.76
74327;BME280;62745;51.060;13.786;2022-09-03T05:00:36;100444.78;;;10.14;85.56
74327;BME280;62745;51.060;13.786;2022-09-03T05:03:02;100449.59;;;10.34;86.27
74327;BME280;62745;51.060;13.786;2022-09-03T05:05:29;100447.19;;;10.39;85.58
74327;BME280;62745;51.060;13.786;2022-09-03T05:08:01;100449.50;;;10.42;84.53
74327;BME280;62745;51.060;13.786;2022-09-03T05:10:27;100454.03;;;10.41;83.95
74327;BME280;62745;51.060;13.786;2022-09-03T05:13:04;100449.41;;;10.35;85.26
74327;BME280;62745;51.060;13.786;2022-09-03T05:15:31;100453.91;;;10.49;84.48
74327;BME280;62745;51.060;13.786;2022-09-03T05:18:00;100442.47;;;10.41;84.56
74327;BME280;62745;51.060;13.786;2022-09-03T05:20:27;100445.06;;;10.49;84.90
74327;BME280;62745;51.060;13.786;2022-09-03T05:22:54;100437.31;;;10.39;84.41
74327;BME280;62745;51.060;13.786;2022-09-03T05:25:20;100439.09;;;10.32;84.81
74327;BME280;62745;51.060;13.786;2022-09-03T05:27:45;100440.47;;;10.43;85.07
74327;BME280;62745;51.060;13.786;2022-09-03T05:30:11;100441.41;;;10.71;85.31
74327;BME280;62745;51.060;13.786;2022-09-03T05:32:36;100434.72;;;10.61;84.26
74327;BME280;62745;51.060;13.786;2022-09-03T05:35:02;100429.09;;;10.55;84.50
74327;BME280;62745;51.060;13.786;2022-09-03T05:37:27;100430.41;;;10.60;86.15
74327;BME280;62745;51.060;13.786;2022-09-03T05:39:52;100436.91;;;10.72;83.41
74327;BME280;62745;51.060;13.786;2022-09-03T05:42:18;100440.09;;;10.82;84.42
74327;BME280;62745;51.060;13.786;2022-09-03T05:44:43;100439.91;;;10.83;84.02
74327;BME280;62745;51.060;13.786;2022-09-03T05:47:08;100443.03;;;11.08;83.50
74327;BME280;62745;51.060;13.786;2022-09-03T05:49:34;100438.06;;;11.05;83.22
74327;BME280;62745;51.060;13.786;2022-09-03T05:51:59;100437.44;;;11.03;82.35
74327;BME280;62745;51.060;13.786;2022-09-03T05:54:24;100439.28;;;11.03;84.14
74327;BME280;62745;51.060;13.786;2022-09-03T05:56:50;100437.06;;;11.28;85.28
74327;BME280;62745;51.060;13.786;2022-09-03T05:59:15;100433.31;;;11.22;84.62
74327;BME280;62745;51.060;13.786;2022-09-03T06:01:42;100433.94;;;11.24;84.55
74327;BME280;62745;51.060;13.786;2022-09-03T06:04:13;100439.38;;;11.31;84.44
74327;BME280;62745;51.060;13.786;2022-09-03T06:06:43;100442.72;;;11.39;83.99
74327;BME280;62745;51.060;13.786;2022-09-03T06:09:14;100435.91;;;11.37;82.16
74327;BME280;62745;51.060;13.786;2022-09-03T06:11:44;100446.28;;;11.47;80.68
74327;BME280;62745;51.060;13.786;2022-09-03T06:14:12;100444.56;;;11.60;79.64
74327;BME280;62745;51.060;13.786;2022-09-03T06:16:39;100451.94;;;11.80;78.87
74327;BME280;62745;51.060;13.786;2022-09-03T06:19:05;100453.19;;;11.84;78.85
74327;BME280;62745;51.060;13.786;2022-09-03T06:21:37;100448.88;;;11.89;77.25
74327;BME280;62745;51.060;13.786;2022-09-03T06:24:07;100452.66;;;11.95;77.54
74327;BME280;62745;51.060;13.786;2022-09-03T06:26:33;100452.91;;;12.07;78.03
74327;BME280;62745;51.060;13.786;2022-09-03T06:28:58;100454.44;;;12.22;76.94
74327;BME280;62745;51.060;13.786;2022-09-03T06:31:24;100454.72;;;12.34;77.28
74327;BME280;62745;51.060;13.786;2022-09-03T06:33:50;100461.63;;;12.56;76.38
74327;BME280;62745;51.060;13.786;2022-09-03T06:36:18;100457.34;;;12.69;78.87
74327;BME280;62745;51.060;13.786;2022-09-03T06:38:45;100459.66;;;12.78;79.39
74327;BME280;62745;51.060;13.786;2022-09-03T06:41:15;100459.88;;;12.83;75.67
74327;BME280;62745;51.060;13.786;2022-09-03T06:43:56;100451.63;;;12.85;75.37
74327;BME280;62745;51.060;13.786;2022-09-03T06:46:23;100465.69;;;13.00;74.66
74327;BME280;62745;51.060;13.786;2022-09-03T06:48:49;100454.00;;;13.21;74.30
74327;BME280;62745;51.060;13.786;2022-09-03T06:51:22;100450.09;;;13.30;73.74
74327;BME280;62745;51.060;13.786;2022-09-03T06:53:49;100458.56;;;13.27;73.66
74327;BME280;62745;51.060;13.786;2022-09-03T06:56:20;100448.66;;;13.34;74.48
74327;BME280;62745;51.060;13.786;2022-09-03T06:59:03;100444.94;;;13.42;73.11
74327;BME280;62745;51.060;13.786;2022-09-03T07:01:30;100450.72;;;13.52;73.73
74327;BME280;62745;51.060;13.786;2022-09-03T07:04:05;100454.66;;;13.56;72.91
74327;BME280;62745;51.060;13.786;2022-09-03T07:06:33;100444.94;;;13.75;72.32
74327;BME280;62745;51.060;13.786;2022-09-03T07:09:01;100448.84;;;13.85;70.93
74327;BME280;62745;51.060;13.786;2022-09-03T07:11:28;100448.63;;;14.00;70.71
74327;BME280;62745;51.060;13.786;2022-09-03T07:13:54;100445.31;;;13.98;70.88
74327;BME280;62745;51.060;13.786;2022-09-03T07:16:33;100445.47;;;14.10;69.72
74327;BME280;62745;51.060;13.786;2022-09-03T07:18:59;100440.31;;;14.08;70.61
74327;BME280;62745;51.060;13.786;2022-09-03T07:21:26;100442.97;;;14.28;71.90
74327;BME280;62745;51.060;13.786;2022-09-03T07:23:53;100443.34;;;14.38;69.18
74327;BME280;62745;51.060;13.786;2022-09-03T07:26:23;100439.59;;;14.53;69.79
74327;BME280;62745;51.060;13.786;2022-09-03T07:28:49;100440.38;;;14.60;68.73
74327;BME280;62745;51.060;13.786;2022-09-03T07:31:20;100430.00;;;14.70;69.57
74327;BME280;62745;51.060;13.786;2022-09-03T07:34:04;100435.47;;;14.95;70.78
74327;BME280;62745;51.060;13.786;2022-09-03T07:36:30;100420.09;;;15.02;71.27
74327;BME280;62745;51.060;13.786;2022-09-03T07:38:57;100428.47;;;15.19;70.50
74327;BME280;62745;51.060;13.786;2022-09-03T07:41:24;100427.28;;;15.40;70.19
74327;BME280;62745;51.060;13.786;2022-09-03T07:43:50;100419.53;;;15.50;67.64
74327;BME280;62745;51.060;13.786;2022-09-03T07:46:23;100424.28;;;15.79;67.23
74327;BME280;62745;51.060;13.786;2022-09-03T07:48:50;100411.41;;;15.81;67.55
74327;BME280;62745;51.060;13.786;2022-09-03T07:51:16;100409.72;;;16.05;66.81
74327;BME280;62745;51.060;13.786;2022-09-03T07:53:43;100414.50;;;16.21;65.35
74327;BME280;62745;51.060;13.786;2022-09-03T07:56:09;100418.56;;;16.31;66.02
74327;BME280;62745;51.060;13.786;2022-09-03T07:58:36;100418.78;;;16.47;66.75
74327;BME280;62745;51.060;13.786;2022-09-03T08:01:06;100423.00;;;16.55;64.55
74327;BME280;62745;51.060;13.786;2022-09-03T08:03:36;100414.00;;;16.79;66.83
74327;BME280;62745;51.060;13.786;2022-09-03T08:06:04;100417.66;;;16.85;64.48
74327;BME280;62745;51.060;13.786;2022-09-03T08:08:30;100416.75;;;16.91;64.54
74327;BME280;62745;51.060;13.786;2022-09-03T08:11:03;100412.44;;;17.02;64.19
74327;BME280;62745;51.060;13.786;2022-09-03T08:13:29;100414.13;;;17.26;64.74
74327;BME280;62745;51.060;13.786;2022-09-03T08:15:55;100410.16;;;17.40;63.66
74327;BME280;62745;51.060;13.786;2022-09-03T08:18:21;100408.78;;;17.61;61.05
74327;BME280;62745;51.060;13.786;2022-09-03T08:20:47;100409.16;;;17.77;58.39
74327;BME280;62745;51.060;13.786;2022-09-03T08:23:12;100404.09;;;17.92;60.49
74327;BME280;62745;51.060;13.786;2022-09-03T08:25:38;100399.03;;;18.07;59.03
74327;BME280;62745;51.060;13.786;2022-09-03T08:28:04;100408.78;;;18.20;57.61
74327;BME280;62745;51.060;13.786;2022-09-03T08:30:29;100401.47;;;18.32;56.53
74327;BME280;62745;51.060;13.786;2022-09-03T08:32:54;100405.31;;;18.48;55.03
74327;BME280;62745;51.060;13.786;2022-09-03T08:35:20;100402.91;;;18.63;51.24
74327;BME280;62745;51.060;13.786;2022-09-03T08:37:46;100392.06;;;18.91;48.58
74327;BME280;62745;51.060;13.786;2022-09-03T08:40:15;100390.63;;;19.01;49.16
74327;BME280;62745;51.060;13.786;2022-09-03T08:42:55;100401.56;;;19.39;49.17
74327;BME280;62745;51.060;13.786;2022-09-03T08:45:24;100392.03;;;19.53;46.10
74327;BME280;62745;51.060;13.786;2022-09-03T08:47:59;100397.47;;;19.70;42.96
74327;BME280;62745;51.060;13.786;2022-09-03T08:50:30;100392.03;;;19.70;43.02
74327;BME280;62745;51.060;13.786;2022-09-03T08:55:28;100388.38;;;19.81;41.94
74327;BME280;62745;51.060;13.786;2022-09-03T08:58:05;100389.94;;;19.94;41.19
74327;BME280;62745;51.060;13.786;2022-09-03T09:00:48;100391.34;;;20.19;41.54
74327;BME280;62745;51.060;13.786;2022-09-03T09:03:28;100388.38;;;20.20;39.65
74327;BME280;62745;51.060;13.786;2022-09-03T09:06:10;100368.19;;;20.11;39.61
74327;BME280;62745;51.060;13.786;2022-09-03T09:08:45;100377.97;;;20.34;40.61
74327;BME280;62745;51.060;13.786;2022-09-03T09:13:57;100379.78;;;20.72;39.94
74327;BME280;62745;51.060;13.786;2022-09-03T09:16:46;100369.41;;;20.42;39.48
74327;BME280;62745;51.060;13.786;2022-09-03T09:19:29;100373.63;;;20.82;39.48
74327;BME280;62745;51.060;13.786;2022-09-03T09:22:10;100370.63;;;21.10;39.39
74327;BME280;62745;51.060;13.786;2022-09-03T09:24:41;100366.97;;;20.94;38.41
74327;BME280;62745;51.060;13.786;2022-09-03T09:27:08;100370.72;;;21.20;38.75
74327;BME280;62745;51.060;13.786;2022-09-03T09:29:37;100362.59;;;21.20;38.22
74327;BME280;62745;51.060;13.786;2022-09-03T09:32:04;100363.84;;;21.40;37.81
74327;BME280;62745;51.060;13.786;2022-09-03T09:34:38;100352.53;;;21.53;37.51
74327;BME280;62745;51.060;13.786;2022-09-03T09:37:08;100355.66;;;21.77;37.68
74327;BME280;62745;51.060;13.786;2022-09-03T09:39:34;100360.78;;;21.68;37.47
74327;BME280;62745;51.060;13.786;2022-09-03T09:42:07;100353.28;;;21.96;37.71
74327;BME280;62745;51.060;13.786;2022-09-03T09:44:35;100346.22;;;21.95;36.50
74327;BME280;62745;51.060;13.786;2022-09-03T09:47:02;100349.59;;;22.17;37.85
74327;BME280;62745;51.060;13.786;2022-09-03T09:49:33;100353.47;;;22.31;36.40
74327;BME280;62745;51.060;13.786;2022-09-03T09:52:10;100341.75;;;22.31;36.70
74327;BME280;62745;51.060;13.786;2022-09-03T09:54:36;100342.66;;;22.62;37.34
74327;BME280;62745;51.060;13.786;2022-09-03T09:57:07;100338.91;;;22.83;36.60
74327;BME280;62745;51.060;13.786;2022-09-03T09:59:38;100344.13;;;22.85;35.04
74327;BME280;62745;51.060;13.786;2022-09-03T10:02:12;100336.00;;;22.17;35.90
74327;BME280;62745;51.060;13.786;2022-09-03T10:04:38;100337.75;;;22.54;35.51
74327;BME280;62745;51.060;13.786;2022-09-03T10:07:27;100339.41;;;22.65;36.05
74327;BME280;62745;51.060;13.786;2022-09-03T10:10:09;100332.94;;;22.96;35.19
74327;BME280;62745;51.060;13.786;2022-09-03T10:13:01;100340.28;;;23.36;35.02
74327;BME280;62745;51.060;13.786;2022-09-03T10:15:54;100329.09;;;23.38;34.68
74327;BME280;62745;51.060;13.786;2022-09-03T10:21:27;100322.53;;;23.59;33.57
74327;BME280;62745;51.060;13.786;2022-09-03T10:24:09;100321.72;;;23.49;34.64
74327;BME280;62745;51.060;13.786;2022-09-03T10:26:39;100329.06;;;23.63;33.41
74327;BME280;62745;51.060;13.786;2022-09-03T10:29:06;100322.78;;;23.73;33.44
74327;BME280;62745;51.060;13.786;2022-09-03T10:31:47;100321.41;;;23.86;33.03
74327;BME280;62745;51.060;13.786;2022-09-03T10:37:09;100320.53;;;23.95;33.22
74327;BME280;62745;51.060;13.786;2022-09-03T10:39:55;100320.78;;;23.99;33.54
74327;BME280;62745;51.060;13.786;2022-09-03T10:50:46;100293.47;;;24.04;32.60
74327;BME280;62745;51.060;13.786;2022-09-03T10:53:33;100297.91;;;24.44;31.88
74327;BME280;62745;51.060;13.786;2022-09-03T10:56:24;100300.47;;;24.25;31.11
74327;BME280;62745;51.060;13.786;2022-09-03T11:02:20;100283.53;;;24.23;31.24
74327;BME280;62745;51.060;13.786;2022-09-03T11:04:59;100283.91;;;24.01;31.72
74327;BME280;62745;51.060;13.786;2022-09-03T11:07:45;100281.78;;;23.93;32.06
74327;BME280;62745;51.060;13.786;2022-09-03T11:12:54;100270.22;;;24.95;30.94
74327;BME280;62745;51.060;13.786;2022-09-03T11:18:15;100280.25;;;25.34;31.28
74327;BME280;62745;51.060;13.786;2022-09-03T11:20:43;100285.28;;;25.50;31.30
74327;BME280;62745;51.060;13.786;2022-09-03T11:23:10;100280.31;;;25.53;29.89
74327;BME280;62745;51.060;13.786;2022-09-03T11:25:42;100268.63;;;25.47;30.36
74327;BME280;62745;51.060;13.786;2022-09-03T11:31:11;100273.09;;;26.09;29.61
74327;BME280;62745;51.060;13.786;2022-09-03T11:33:47;100276.44;;;26.25;29.37
74327;BME280;62745;51.060;13.786;2022-09-03T11:36:25;100259.34;;;26.52;28.57
74327;BME280;62745;51.060;13.786;2022-09-03T11:38:52;100269.16;;;26.34;28.30
74327;BME280;62745;51.060;13.786;2022-09-03T11:43:46;100274.47;;;25.88;29.35
74327;BME280;62745;51.060;13.786;2022-09-03T11:46:26;100257.84;;;25.32;30.07
74327;BME280;62745;51.060;13.786;2022-09-03T11:48:53;100258.00;;;25.69;29.39
74327;BME280;62745;51.060;13.786;2022-09-03T11:56:20;100269.53;;;25.90;29.87
74327;BME280;62745;51.060;13.786;2022-09-03T11:58:45;100254.00;;;26.23;27.91
74327;BME280;62745;51.060;13.786;2022-09-03T12:01:13;100266.13;;;25.98;28.22
74327;BME280;62745;51.060;13.786;2022-09-03T12:03:52;100264.47;;;26.21;29.01
74327;BME280;62745;51.060;13.786;2022-09-03T12:15:20;100258.41;;;28.68;25.98
74327;BME280;62745;51.060;13.786;2022-09-03T12:17:52;100251.81;;;28.55;25.34
74327;BME280;62745;51.060;13.786;2022-09-03T12:20:40;100259.03;;;27.65;27.51
74327;BME280;62745;51.060;13.786;2022-09-03T12:23:09;100259.75;;;28.93;24.92
74327;BME280;62745;51.060;13.786;2022-09-03T12:25:42;100248.03;;;29.18;24.74
74327;BME280;62745;51.060;13.786;2022-09-03T12:28:12;100253.28;;;28.97;24.71
74327;BME280;62745;51.060;13.786;2022-09-03T12:30:40;100244.88;;;29.64;25.28
74327;BME280;62745;51.060;13.786;2022-09-03T12:33:07;100249.66;;;28.88;23.97
74327;BME280;62745;51.060;13.786;2022-09-03T12:35:33;100254.06;;;30.34;23.46
74327;BME280;62745;51.060;13.786;2022-09-03T12:37:58;100243.44;;;31.05;22.83
74327;BME280;62745;51.060;13.786;2022-09-03T12:40:26;100252.00;;;31.97;21.34
74327;BME280;62745;51.060;13.786;2022-09-03T12:42:52;100241.31;;;31.58;20.96
74327;BME280;62745;51.060;13.786;2022-09-03T12:45:23;100236.16;;;31.01;21.35
74327;BME280;62745;51.060;13.786;2022-09-03T12:47:49;100240.28;;;30.51;22.05
74327;BME280;62745;51.060;13.786;2022-09-03T12:50:23;100230.25;;;30.64;22.16
74327;BME280;62745;51.060;13.786;2022-09-03T12:53:00;100230.06;;;30.61;22.12
74327;BME280;62745;51.060;13.786;2022-09-03T12:55:37;100238.13;;;31.47;21.41
74327;BME280;62745;51.060;13.786;2022-09-03T13:00:36;100216.34;;;31.84;21.23
74327;BME280;62745;51.060;13.786;2022-09-03T13:06:00;100222.84;;;32.83;20.08
74327;BME280;62745;51.060;13.786;2022-09-03T13:08:40;100219.16;;;32.91;19.79
74327;BME280;62745;51.060;13.786;2022-09-03T13:11:08;100223.03;;;33.11;19.61
74327;BME280;62745;51.060;13.786;2022-09-03T13:13:36;100226.91;;;32.65;19.54
74327;BME280;62745;51.060;13.786;2022-09-03T13:18:53;100215.03;;;31.05;23.04
74327;BME280;62745;51.060;13.786;2022-09-03T13:30:12;100205.72;;;28.52;27.07
74327;BME280;62745;51.060;13.786;2022-09-03T13:32:52;100211.59;;;28.01;27.66
74327;BME280;62745;51.060;13.786;2022-09-03T13:35:33;100211.13;;;27.44;28.85
74327;BME280;62745;51.060;13.786;2022-09-03T13:38:12;100211.13;;;27.57;28.04
74327;BME280;62745;51.060;13.786;2022-09-03T13:41:11;100201.91;;;28.03;27.08
74327;BME280;62745;51.060;13.786;2022-09-03T13:46:17;100196.47;;;29.81;24.74
74327;BME280;62745;51.060;13.786;2022-09-03T13:48:47;100191.63;;;29.95;23.90
74327;BME280;62745;51.060;13.786;2022-09-03T13:51:49;100191.22;;;29.53;24.28
74327;BME280;62745;51.060;13.786;2022-09-03T13:54:23;100192.69;;;29.11;25.04
74327;BME280;62745;51.060;13.786;2022-09-03T13:56:59;100192.41;;;28.68;25.86
74327;BME280;62745;51.060;13.786;2022-09-03T13:59:48;100194.19;;;28.41;26.17
74327;BME280;62745;51.060;13.786;2022-09-03T14:02:27;100186.28;;;29.33;25.27
74327;BME280;62745;51.060;13.786;2022-09-03T14:13:13;100175.06;;;31.28;23.51
74327;BME280;62745;51.060;13.786;2022-09-03T14:15:43;100182.44;;;32.16;21.45
74327;BME280;62745;51.060;13.786;2022-09-03T14:19:02;100169.50;;;31.87;22.47
74327;BME280;62745;51.060;13.786;2022-09-03T14:21:16;100177.94;;;32.12;21.39
74327;BME280;62745;51.060;13.786;2022-09-03T14:23:45;100179.84;;;31.40;22.14
74327;BME280;62745;51.060;13.786;2022-09-03T14:26:17;100174.81;;;31.42;22.20
74327;BME280;62745;51.060;13.786;2022-09-03T14:28:49;100184.38;;;31.74;21.66
74327;BME280;62745;51.060;13.786;2022-09-03T14:34:27;100182.78;;;31.94;21.19
74327;BME280;62745;51.060;13.786;2022-09-03T14:37:19;100180.66;;;31.70;21.88